createdAt,value
2022-08-19T00:00:07.781Z,20.30
2022-08-19T00:01:07.770Z,20.31
2022-08-19T00:02:07.776Z,20.35
2022-08-19T00:03:07.770Z,20.36
2022-08-19T00:05:07.779Z,20.38
2022-08-19T00:06:07.771Z,20.39
2022-08-19T00:09:07.780Z,20.38
2022-08-19T00:10:07.808Z,20.24
2022-08-19T00:11:07.780Z,20.21
2022-08-19T00:12:07.809Z,20.12
2022-08-19T00:13:07.790Z,20.09
2022-08-19T00:14:07.795Z,20.10
2022-08-19T00:15:07.801Z,20.12
2022-08-19T00:16:07.785Z,20.14
2022-08-19T00:17:07.807Z,20.18
2022-08-19T00:18:07.807Z,20.12
2022-08-19T00:20:07.833Z,20.14
2022-08-19T00:21:07.822Z,20.15
2022-08-19T00:22:07.807Z,20.17
2022-08-19T00:23:07.814Z,20.19
2022-08-19T00:26:07.835Z,20.21
2022-08-19T00:27:25.731Z,20.23
2022-08-19T00:31:07.879Z,20.15
2022-08-19T00:32:07.849Z,19.94
2022-08-19T00:33:07.851Z,19.79
2022-08-19T00:34:07.858Z,19.76
2022-08-19T00:35:07.848Z,19.73
2022-08-19T00:36:07.871Z,19.69
2022-08-19T00:37:07.853Z,19.68
2022-08-19T00:38:07.845Z,19.72
2022-08-19T00:39:07.863Z,19.71
2022-08-19T00:40:07.986Z,19.67
2022-08-19T00:41:07.861Z,19.65
2022-08-19T00:42:07.889Z,19.66
2022-08-19T00:43:07.865Z,19.70
2022-08-19T00:44:07.870Z,19.75
2022-08-19T00:45:07.888Z,19.78
2022-08-19T00:46:07.879Z,19.79
2022-08-19T00:47:07.870Z,19.80
2022-08-19T00:49:07.888Z,19.78
2022-08-19T00:50:07.889Z,19.81
2022-08-19T00:51:07.906Z,19.84
2022-08-19T00:52:07.907Z,19.86
2022-08-19T00:54:07.904Z,19.73
2022-08-19T00:55:07.904Z,19.66
2022-08-19T00:56:07.931Z,19.58
2022-08-19T00:57:07.915Z,19.57
2022-08-19T00:58:07.913Z,19.61
2022-08-19T00:59:07.897Z,19.64
2022-08-19T01:00:07.907Z,19.69
2022-08-19T01:01:07.945Z,19.76
2022-08-19T01:02:07.921Z,19.83
2022-08-19T01:03:07.937Z,19.88
2022-08-19T01:04:07.934Z,19.93
2022-08-19T01:05:07.927Z,19.98
2022-08-19T01:06:07.951Z,20.03
2022-08-19T01:07:07.944Z,20.07
2022-08-19T01:08:07.937Z,20.12
2022-08-19T01:09:07.923Z,20.16
2022-08-19T01:10:07.941Z,20.20
2022-08-19T01:11:07.943Z,20.22
2022-08-19T01:12:07.931Z,20.24
2022-08-19T01:13:07.940Z,20.26
2022-08-19T01:14:07.974Z,20.28
2022-08-19T01:15:07.973Z,20.29
2022-08-19T01:16:07.973Z,20.30
2022-08-19T01:17:07.969Z,20.31
2022-08-19T01:19:07.963Z,20.32
2022-08-19T01:21:08.006Z,20.28
2022-08-19T01:22:14.199Z,20.27
2022-08-19T01:23:07.977Z,20.28
2022-08-19T01:24:07.971Z,20.29
2022-08-19T01:25:12.857Z,20.31
2022-08-19T01:26:07.976Z,20.32
2022-08-19T01:27:07.974Z,20.35
2022-08-19T01:28:10.998Z,20.36
2022-08-19T01:29:07.984Z,20.37
2022-08-19T01:30:07.989Z,20.38
2022-08-19T01:32:07.987Z,20.39
2022-08-19T01:33:08.010Z,20.38
2022-08-19T01:35:08.007Z,20.39
2022-08-19T01:37:08.008Z,20.40
2022-08-19T01:38:08.013Z,20.41
2022-08-19T01:39:08.020Z,20.43
2022-08-19T01:40:09.512Z,20.45
2022-08-19T01:41:09.735Z,20.47
2022-08-19T01:42:08.009Z,20.48
2022-08-19T01:43:08.022Z,20.38
2022-08-19T01:44:18.575Z,20.31
2022-08-19T01:45:08.025Z,20.30
2022-08-19T01:47:08.041Z,20.32
2022-08-19T01:48:08.051Z,20.38
2022-08-19T01:49:08.062Z,20.42
2022-08-19T01:50:08.019Z,20.45
2022-08-19T01:51:08.049Z,20.47
2022-08-19T01:55:08.068Z,20.48
2022-08-19T01:58:08.070Z,20.49
2022-08-19T02:00:08.093Z,20.50
2022-08-19T02:02:08.085Z,20.52
2022-08-19T02:03:08.066Z,20.53
2022-08-19T02:04:08.081Z,20.52
2022-08-19T02:06:08.077Z,20.53
2022-08-19T02:09:08.106Z,20.52
2022-08-19T02:10:12.271Z,20.51
2022-08-19T02:11:08.080Z,20.50
2022-08-19T02:12:08.108Z,20.49
2022-08-19T02:13:08.104Z,20.48
2022-08-19T02:14:08.104Z,20.47
2022-08-19T02:15:08.119Z,20.46
2022-08-19T02:16:08.131Z,20.48
2022-08-19T02:17:08.104Z,20.50
2022-08-19T02:18:08.102Z,20.51
2022-08-19T02:19:08.110Z,20.52
2022-08-19T02:20:08.098Z,20.54
2022-08-19T02:23:13.648Z,20.55
2022-08-19T02:24:08.132Z,20.54
2022-08-19T02:25:08.130Z,20.55
2022-08-19T02:27:08.127Z,20.54
2022-08-19T02:28:08.139Z,20.53
2022-08-19T02:29:08.128Z,20.52
2022-08-19T02:32:08.169Z,20.54
2022-08-19T02:37:08.176Z,20.55
2022-08-19T02:41:08.180Z,20.56
2022-08-19T02:43:08.188Z,20.55
2022-08-19T02:44:26.437Z,20.56
2022-08-19T02:45:08.175Z,20.57
2022-08-19T02:48:14.847Z,20.58
2022-08-19T02:49:08.180Z,20.59
2022-08-19T02:50:08.182Z,20.60
2022-08-19T02:51:08.197Z,20.59
2022-08-19T02:52:08.196Z,20.57
2022-08-19T02:54:08.193Z,20.58
2022-08-19T02:56:08.207Z,20.57
2022-08-19T02:57:08.203Z,20.54
2022-08-19T02:58:08.343Z,20.51
2022-08-19T03:01:08.261Z,20.52
2022-08-19T03:02:08.220Z,20.53
2022-08-19T03:03:08.234Z,20.52
2022-08-19T03:04:08.224Z,20.53
2022-08-19T03:06:08.241Z,20.51
2022-08-19T03:07:11.062Z,20.49
2022-08-19T03:09:08.243Z,20.48
2022-08-19T03:10:08.240Z,20.49
2022-08-19T03:13:08.245Z,20.46
2022-08-19T03:14:08.235Z,20.43
2022-08-19T03:15:08.249Z,20.42
2022-08-19T03:16:08.268Z,20.43
2022-08-19T03:17:08.267Z,20.42
2022-08-19T03:18:08.250Z,20.41
2022-08-19T03:19:08.282Z,20.40
2022-08-19T03:20:08.267Z,20.41
2022-08-19T03:21:08.281Z,20.40
2022-08-19T03:28:08.294Z,20.41
2022-08-19T03:29:08.636Z,20.42
2022-08-19T03:30:08.371Z,20.39
2022-08-19T03:31:41.687Z,20.36
2022-08-19T03:32:08.303Z,20.35
2022-08-19T03:33:08.295Z,20.36
2022-08-19T03:34:08.288Z,20.38
2022-08-19T03:35:08.307Z,20.39
2022-08-19T03:36:08.294Z,20.40
2022-08-19T03:38:08.302Z,20.41
2022-08-19T03:39:08.315Z,20.40
2022-08-19T03:40:08.436Z,20.39
2022-08-19T03:42:38.298Z,20.41
2022-08-19T03:43:08.329Z,20.43
2022-08-19T03:45:08.359Z,20.45
2022-08-19T03:46:08.320Z,20.46
2022-08-19T03:47:08.327Z,20.47
2022-08-19T03:49:08.341Z,20.46
2022-08-19T03:51:08.354Z,20.47
2022-08-19T03:52:08.610Z,20.46
2022-08-19T03:53:08.355Z,20.47
2022-08-19T03:55:08.356Z,20.49
2022-08-19T03:58:08.363Z,20.48
2022-08-19T03:59:08.378Z,20.47
2022-08-19T04:00:13.467Z,20.45
2022-08-19T04:01:08.395Z,20.44
2022-08-19T04:03:08.379Z,20.43
2022-08-19T04:04:08.390Z,20.42
2022-08-19T04:05:08.383Z,20.41
2022-08-19T04:07:08.395Z,20.40
2022-08-19T04:08:13.305Z,20.39
2022-08-19T04:09:08.393Z,20.33
2022-08-19T04:10:10.604Z,20.28
2022-08-19T04:11:08.387Z,20.25
2022-08-19T04:12:08.407Z,20.24
2022-08-19T04:13:08.392Z,20.25
2022-08-19T04:14:08.409Z,20.26
2022-08-19T04:15:08.409Z,20.28
2022-08-19T04:18:08.417Z,20.29
2022-08-19T04:19:08.419Z,20.30
2022-08-19T04:21:08.405Z,20.31
2022-08-19T04:22:08.416Z,20.32
2022-08-19T04:23:08.430Z,20.33
2022-08-19T04:24:08.417Z,20.28
2022-08-19T04:25:08.447Z,20.25
2022-08-19T04:26:09.295Z,20.23
2022-08-19T04:27:08.443Z,20.22
2022-08-19T04:28:08.457Z,20.21
2022-08-19T04:29:12.300Z,20.20
2022-08-19T04:31:08.461Z,20.22
2022-08-19T04:32:09.798Z,20.17
2022-08-19T04:33:08.471Z,20.19
2022-08-19T04:34:08.559Z,20.20
2022-08-19T04:35:17.574Z,20.24
2022-08-19T04:36:08.466Z,20.26
2022-08-19T04:37:09.741Z,20.28
2022-08-19T04:38:08.470Z,20.30
2022-08-19T04:42:08.491Z,20.31
2022-08-19T04:43:08.503Z,20.32
2022-08-19T04:46:08.482Z,20.33
2022-08-19T04:47:11.210Z,20.36
2022-08-19T04:48:26.490Z,20.37
2022-08-19T04:49:12.946Z,20.36
2022-08-19T04:50:08.496Z,20.37
2022-08-19T04:51:08.495Z,20.36
2022-08-19T04:52:08.504Z,20.37
2022-08-19T04:53:08.503Z,20.36
2022-08-19T04:56:08.513Z,20.35
2022-08-19T04:57:08.623Z,20.34
2022-08-19T04:58:08.531Z,20.33
2022-08-19T05:00:08.515Z,20.35
2022-08-19T05:01:08.588Z,20.34
2022-08-19T05:02:08.554Z,20.31
2022-08-19T05:03:08.527Z,20.23
2022-08-19T05:04:08.544Z,20.19
2022-08-19T05:05:08.606Z,20.17
2022-08-19T05:06:08.545Z,20.02
2022-08-19T05:07:08.576Z,19.98
2022-08-19T05:08:08.546Z,19.99
2022-08-19T05:09:08.551Z,20.01
2022-08-19T05:11:08.572Z,20.03
2022-08-19T05:12:08.571Z,20.06
2022-08-19T05:13:08.566Z,20.09
2022-08-19T05:14:08.567Z,20.12
2022-08-19T05:15:08.560Z,20.15
2022-08-19T05:16:08.572Z,20.17
2022-08-19T05:19:08.590Z,20.18
2022-08-19T05:21:08.598Z,20.19
2022-08-19T05:22:08.588Z,20.21
2022-08-19T05:23:10.812Z,20.22
2022-08-19T05:24:08.597Z,20.23
2022-08-19T05:25:12.580Z,20.24
2022-08-19T05:26:08.600Z,20.22
2022-08-19T05:27:08.596Z,20.21
2022-08-19T05:30:08.621Z,20.17
2022-08-19T05:31:08.600Z,20.10
2022-08-19T05:32:08.611Z,20.08
2022-08-19T05:34:20.037Z,20.09
2022-08-19T05:35:08.725Z,20.10
2022-08-19T05:36:08.641Z,20.11
2022-08-19T05:37:08.618Z,20.10
2022-08-19T05:38:08.621Z,20.11
2022-08-19T05:42:08.650Z,20.13
2022-08-19T05:45:08.637Z,20.14
2022-08-19T05:47:08.646Z,20.15
2022-08-19T05:49:08.652Z,20.16
2022-08-19T05:50:08.662Z,20.18
2022-08-19T05:51:08.670Z,20.20
2022-08-19T05:52:08.677Z,20.21
2022-08-19T05:53:08.673Z,20.22
2022-08-19T05:54:08.690Z,20.24
2022-08-19T05:55:08.681Z,20.26
2022-08-19T05:57:08.681Z,20.27
2022-08-19T05:58:08.775Z,20.28
2022-08-19T05:59:08.673Z,20.24
2022-08-19T06:01:08.695Z,20.26
2022-08-19T06:02:08.724Z,20.28
2022-08-19T06:03:11.873Z,20.30
2022-08-19T06:04:08.680Z,20.25
2022-08-19T06:06:08.713Z,20.27
2022-08-19T06:07:12.150Z,20.28
2022-08-19T06:08:08.699Z,20.30
2022-08-19T06:09:08.735Z,20.26
2022-08-19T06:10:08.717Z,20.22
2022-08-19T06:11:08.756Z,20.20
2022-08-19T06:12:08.755Z,20.19
2022-08-19T06:14:08.717Z,20.21
2022-08-19T06:15:08.728Z,20.20
2022-08-19T06:16:08.737Z,20.18
2022-08-19T06:17:08.760Z,20.15
2022-08-19T06:18:08.755Z,20.16
2022-08-19T06:19:08.746Z,20.19
2022-08-19T06:20:08.754Z,20.20
2022-08-19T06:21:08.750Z,20.23
2022-08-19T06:22:08.728Z,20.25
2022-08-19T06:23:08.747Z,20.27
2022-08-19T06:24:08.755Z,20.29
2022-08-19T06:25:08.772Z,20.30
2022-08-19T06:26:08.764Z,20.32
2022-08-19T06:27:08.754Z,20.35
2022-08-19T06:28:15.064Z,20.36
2022-08-19T06:29:08.781Z,20.37
2022-08-19T06:30:08.774Z,20.36
2022-08-19T06:31:08.795Z,20.37
2022-08-19T06:32:08.787Z,20.40
2022-08-19T06:33:08.791Z,20.41
2022-08-19T06:34:08.776Z,20.43
2022-08-19T06:35:08.754Z,20.42
2022-08-19T06:36:08.824Z,20.41
2022-08-19T06:39:08.784Z,20.42
2022-08-19T06:40:08.826Z,20.44
2022-08-19T06:41:08.810Z,20.45
2022-08-19T06:42:10.317Z,20.46
2022-08-19T06:43:09.574Z,20.44
2022-08-19T06:44:08.812Z,20.43
2022-08-19T06:45:09.231Z,20.46
2022-08-19T06:46:08.829Z,20.48
2022-08-19T06:47:09.577Z,20.51
2022-08-19T06:48:08.816Z,20.54
2022-08-19T06:49:08.807Z,20.56
2022-08-19T06:50:08.813Z,20.59
2022-08-19T06:51:08.941Z,20.60
2022-08-19T06:53:08.842Z,20.61
2022-08-19T06:54:19.339Z,20.62
2022-08-19T06:55:08.823Z,20.65
2022-08-19T06:56:08.829Z,20.55
2022-08-19T06:57:08.838Z,20.51
2022-08-19T06:58:08.833Z,20.50
2022-08-19T06:59:08.836Z,20.51
2022-08-19T07:01:09.296Z,20.54
2022-08-19T07:02:08.961Z,20.55
2022-08-19T07:03:09.374Z,20.57
2022-08-19T07:04:08.862Z,20.56
2022-08-19T07:06:09.885Z,20.55
2022-08-19T07:07:19.723Z,20.54
2022-08-19T07:08:08.851Z,20.41
2022-08-19T07:10:08.858Z,20.43
2022-08-19T07:11:09.349Z,20.39
2022-08-19T07:12:08.861Z,20.42
2022-08-19T07:14:19.229Z,20.46
2022-08-19T07:15:08.870Z,20.49
2022-08-19T07:16:08.885Z,20.48
2022-08-19T07:17:08.876Z,20.51
2022-08-19T07:18:11.951Z,20.52
2022-08-19T07:19:11.566Z,20.55
2022-08-19T07:20:09.585Z,20.58
2022-08-19T07:22:08.906Z,20.60
2022-08-19T07:23:08.894Z,20.62
2022-08-19T07:24:08.908Z,20.63
2022-08-19T07:25:08.935Z,20.66
2022-08-19T07:26:08.916Z,20.68
2022-08-19T07:27:13.830Z,20.71
2022-08-19T07:28:08.912Z,20.73
2022-08-19T07:29:08.918Z,20.75
2022-08-19T07:30:12.151Z,20.74
2022-08-19T07:33:08.913Z,20.73
2022-08-19T07:34:08.981Z,20.67
2022-08-19T07:35:08.937Z,20.61
2022-08-19T07:36:08.937Z,20.54
2022-08-19T07:37:08.950Z,20.51
2022-08-19T07:38:08.941Z,20.46
2022-08-19T07:39:08.959Z,20.43
2022-08-19T07:40:09.044Z,20.38
2022-08-19T07:41:08.944Z,20.32
2022-08-19T07:42:08.974Z,20.31
2022-08-19T07:43:12.318Z,20.30
2022-08-19T07:44:08.959Z,20.31
2022-08-19T07:47:18.326Z,20.32
2022-08-19T07:49:08.971Z,20.31
2022-08-19T07:50:08.985Z,20.30
2022-08-19T07:51:08.963Z,20.29
2022-08-19T07:52:08.996Z,20.28
2022-08-19T07:53:08.965Z,20.24
2022-08-19T07:55:11.473Z,20.25
2022-08-19T07:56:08.982Z,20.26
2022-08-19T07:57:09.015Z,20.23
2022-08-19T07:58:08.996Z,20.22
2022-08-19T07:59:09.007Z,20.20
2022-08-19T08:00:09.003Z,20.19
2022-08-19T08:01:08.990Z,20.22
2022-08-19T08:03:09.015Z,20.25
2022-08-19T08:04:09.042Z,20.28
2022-08-19T08:05:09.007Z,20.30
2022-08-19T08:06:09.036Z,20.31
2022-08-19T08:07:09.038Z,20.34
2022-08-19T08:08:09.033Z,20.38
2022-08-19T08:09:09.060Z,20.41
2022-08-19T08:10:12.631Z,20.43
2022-08-19T08:11:09.035Z,20.44
2022-08-19T08:12:32.517Z,20.46
2022-08-19T08:13:11.077Z,20.48
2022-08-19T08:14:09.056Z,20.50
2022-08-19T08:15:09.030Z,20.49
2022-08-19T08:16:10.287Z,20.48
2022-08-19T08:17:11.011Z,20.49
2022-08-19T08:19:25.799Z,20.46
2022-08-19T08:20:09.048Z,20.47
2022-08-19T08:21:09.049Z,20.48
2022-08-19T08:23:09.047Z,20.45
2022-08-19T08:25:09.091Z,20.47
2022-08-19T08:26:09.073Z,20.46
2022-08-19T08:27:11.433Z,20.44
2022-08-19T08:28:09.067Z,20.43
2022-08-19T08:29:12.460Z,20.41
2022-08-19T08:32:14.800Z,20.40
2022-08-19T08:33:09.118Z,20.39
2022-08-19T08:36:09.110Z,20.35
2022-08-19T08:37:09.115Z,20.33
2022-08-19T08:38:09.097Z,20.31
2022-08-19T08:39:09.085Z,20.33
2022-08-19T08:40:12.969Z,20.29
2022-08-19T08:41:09.109Z,20.26
2022-08-19T08:42:10.228Z,20.24
2022-08-19T08:43:11.187Z,20.23
2022-08-19T08:45:09.118Z,20.20
2022-08-19T08:47:09.114Z,20.21
2022-08-19T08:48:22.436Z,20.20
2022-08-19T08:49:09.615Z,20.21
2022-08-19T08:50:09.113Z,20.22
2022-08-19T08:51:09.305Z,20.23
2022-08-19T08:53:09.112Z,20.20
2022-08-19T08:54:09.755Z,20.15
2022-08-19T08:55:10.109Z,20.17
2022-08-19T08:56:09.134Z,20.20
2022-08-19T08:57:09.129Z,20.23
2022-08-19T08:58:09.159Z,20.27
2022-08-19T08:59:09.151Z,20.31
2022-08-19T09:00:15.684Z,20.35
2022-08-19T09:01:09.158Z,20.36
2022-08-19T09:02:09.149Z,20.34
2022-08-19T09:03:09.143Z,20.35
2022-08-19T09:04:09.159Z,20.37
2022-08-19T09:05:09.158Z,20.39
2022-08-19T09:06:11.837Z,20.35
2022-08-19T09:07:18.422Z,20.33
2022-08-19T09:08:09.180Z,20.30
2022-08-19T09:09:12.186Z,20.26
2022-08-19T09:10:09.160Z,20.19
2022-08-19T09:11:09.171Z,20.20
2022-08-19T09:12:09.181Z,20.16
2022-08-19T09:13:09.643Z,20.17
2022-08-19T09:14:19.174Z,20.21
2022-08-19T09:15:09.174Z,20.25
2022-08-19T09:16:09.199Z,20.28
2022-08-19T09:17:09.179Z,20.29
2022-08-19T09:19:09.187Z,20.26
2022-08-19T09:20:09.397Z,20.25
2022-08-19T09:21:09.193Z,20.24
2022-08-19T09:22:09.185Z,20.22
2022-08-19T09:23:09.199Z,20.19
2022-08-19T09:25:09.192Z,20.15
2022-08-19T09:26:09.204Z,20.14
2022-08-19T09:27:18.273Z,20.15
2022-08-19T09:28:20.611Z,20.17
2022-08-19T09:31:09.266Z,20.18
2022-08-19T09:32:26.079Z,20.15
2022-08-19T09:34:09.239Z,20.17
2022-08-19T09:35:09.238Z,20.13
2022-08-19T09:36:09.269Z,20.10
2022-08-19T09:37:09.232Z,20.07
2022-08-19T09:39:16.239Z,20.10
2022-08-19T09:40:09.345Z,20.15
2022-08-19T09:41:09.278Z,20.21
2022-08-19T09:42:16.682Z,20.24
2022-08-19T09:43:11.389Z,20.12
2022-08-19T09:44:09.239Z,20.11
2022-08-19T09:45:10.252Z,20.12
2022-08-19T09:46:09.256Z,20.13
2022-08-19T09:47:09.255Z,20.14
2022-08-19T09:49:09.277Z,20.15
2022-08-19T09:50:09.271Z,20.19
2022-08-19T09:51:11.855Z,20.23
2022-08-19T09:52:09.274Z,20.25
2022-08-19T09:53:09.279Z,20.26
2022-08-19T09:55:09.285Z,20.27
2022-08-19T09:56:09.338Z,20.28
2022-08-19T09:57:09.297Z,20.27
2022-08-19T09:58:09.284Z,20.26
2022-08-19T10:00:09.292Z,20.21
2022-08-19T10:01:09.343Z,20.22
2022-08-19T10:02:10.945Z,20.24
2022-08-19T10:03:09.315Z,20.26
2022-08-19T10:04:14.755Z,20.28
2022-08-19T10:05:09.302Z,20.27
2022-08-19T10:06:14.662Z,20.28
2022-08-19T10:07:09.302Z,20.29
2022-08-19T10:08:13.296Z,20.19
2022-08-19T10:09:09.327Z,20.17
2022-08-19T10:10:09.311Z,20.18
2022-08-19T10:11:27.219Z,20.20
2022-08-19T10:12:11.296Z,20.22
2022-08-19T10:13:09.325Z,20.23
2022-08-19T10:14:09.312Z,20.24
2022-08-19T10:16:09.334Z,20.27
2022-08-19T10:17:17.667Z,20.28
2022-08-19T10:18:09.345Z,20.32
2022-08-19T10:19:09.359Z,20.35
2022-08-19T10:20:09.332Z,20.32
2022-08-19T10:21:09.352Z,20.26
2022-08-19T10:22:10.071Z,20.24
2022-08-19T10:23:09.352Z,20.23
2022-08-19T10:24:09.617Z,20.18
2022-08-19T10:26:09.384Z,20.20
2022-08-19T10:27:09.352Z,20.19
2022-08-19T10:28:10.485Z,20.14
2022-08-19T10:29:09.591Z,20.16
2022-08-19T10:30:10.107Z,20.19
2022-08-19T10:31:09.410Z,20.23
2022-08-19T10:32:10.003Z,20.26
2022-08-19T10:33:11.172Z,20.28
2022-08-19T10:34:10.104Z,20.29
2022-08-19T10:36:09.397Z,20.28
2022-08-19T10:37:10.772Z,20.27
2022-08-19T10:39:09.395Z,20.25
2022-08-19T10:40:09.536Z,20.23
2022-08-19T10:41:09.396Z,20.20
2022-08-19T10:42:09.403Z,20.17
2022-08-19T10:43:09.401Z,20.18
2022-08-19T10:44:09.410Z,20.20
2022-08-19T10:45:09.394Z,20.23
2022-08-19T10:46:09.633Z,20.26
2022-08-19T10:47:24.396Z,20.28
2022-08-19T10:48:09.405Z,20.21
2022-08-19T10:50:11.808Z,20.23
2022-08-19T10:51:09.440Z,20.27
2022-08-19T10:52:10.319Z,20.28
2022-08-19T10:53:09.871Z,20.29
2022-08-19T10:54:12.516Z,20.32
2022-08-19T10:55:09.439Z,20.37
2022-08-19T10:56:09.476Z,20.39
2022-08-19T10:58:09.559Z,20.43
2022-08-19T10:59:09.467Z,20.46
2022-08-19T11:00:09.457Z,20.48
2022-08-19T11:01:09.509Z,20.50
2022-08-19T11:02:09.445Z,20.52
2022-08-19T11:04:09.453Z,20.54
2022-08-19T11:05:14.659Z,20.55
2022-08-19T11:06:09.478Z,20.54
2022-08-19T11:07:09.475Z,20.55
2022-08-19T11:08:22.777Z,20.58
2022-08-19T11:09:09.465Z,20.59
2022-08-19T11:10:13.024Z,20.57
2022-08-19T11:11:09.471Z,20.56
2022-08-19T11:12:09.475Z,20.55
2022-08-19T11:13:09.498Z,20.54
2022-08-19T11:14:09.491Z,20.55
2022-08-19T11:16:09.475Z,20.57
2022-08-19T11:17:09.495Z,20.52
2022-08-19T11:19:09.501Z,20.54
2022-08-19T11:20:09.502Z,20.56
2022-08-19T11:21:09.503Z,20.59
2022-08-19T11:22:09.508Z,20.61
2022-08-19T11:23:09.490Z,20.63
2022-08-19T11:24:09.512Z,20.65
2022-08-19T11:25:09.512Z,20.70
2022-08-19T11:26:09.510Z,20.74
2022-08-19T11:27:09.517Z,20.76
2022-08-19T11:28:09.513Z,20.80
2022-08-19T11:29:09.543Z,20.81
2022-08-19T11:30:12.813Z,20.83
2022-08-19T11:32:09.520Z,20.81
2022-08-19T11:33:09.539Z,20.82
2022-08-19T11:34:09.547Z,20.81
2022-08-19T11:35:09.609Z,20.78
2022-08-19T11:36:09.550Z,20.75
2022-08-19T11:37:09.568Z,20.71
2022-08-19T11:38:09.914Z,20.69
2022-08-19T11:39:09.558Z,20.70
2022-08-19T11:40:09.653Z,20.66
2022-08-19T11:41:09.563Z,20.63
2022-08-19T11:44:09.554Z,20.65
2022-08-19T11:45:09.570Z,20.68
2022-08-19T11:46:09.557Z,20.71
2022-08-19T11:47:09.597Z,20.73
2022-08-19T11:48:09.580Z,20.71
2022-08-19T11:49:13.678Z,20.69
2022-08-19T11:53:10.087Z,20.72
2022-08-19T11:54:09.609Z,20.75
2022-08-19T11:55:09.588Z,20.76
2022-08-19T11:58:15.024Z,20.75
2022-08-19T11:59:14.116Z,20.74
2022-08-19T12:00:09.651Z,20.75
2022-08-19T12:01:09.612Z,20.76
2022-08-19T12:02:09.602Z,20.78
2022-08-19T12:03:09.622Z,20.76
2022-08-19T12:04:09.682Z,20.73
2022-08-19T12:05:12.691Z,20.52
2022-08-19T12:06:09.604Z,20.47
2022-08-19T12:07:09.626Z,20.49
2022-08-19T12:08:09.645Z,20.56
2022-08-19T12:09:09.647Z,20.58
2022-08-19T12:10:10.649Z,20.61
2022-08-19T12:11:09.628Z,20.63
2022-08-19T12:12:09.650Z,20.67
2022-08-19T12:13:09.628Z,20.72
2022-08-19T12:14:09.641Z,20.76
2022-08-19T12:15:09.622Z,20.67
2022-08-19T12:16:09.665Z,20.70
2022-08-19T12:17:09.648Z,20.65
2022-08-19T12:18:09.639Z,20.63
2022-08-19T12:19:09.655Z,20.64
2022-08-19T12:20:09.661Z,20.54
2022-08-19T12:21:09.650Z,20.56
2022-08-19T12:22:09.643Z,20.60
2022-08-19T12:23:09.660Z,20.66
2022-08-19T12:24:09.654Z,20.71
2022-08-19T12:25:09.661Z,20.72
2022-08-19T12:26:09.661Z,20.74
2022-08-19T12:27:12.952Z,20.66
2022-08-19T12:29:09.699Z,20.68
2022-08-19T12:30:09.679Z,20.72
2022-08-19T12:31:09.678Z,20.75
2022-08-19T12:32:10.413Z,20.76
2022-08-19T12:33:09.679Z,20.77
2022-08-19T12:34:09.688Z,20.79
2022-08-19T12:35:09.714Z,20.80
2022-08-19T12:36:09.692Z,20.84
2022-08-19T12:37:09.709Z,20.87
2022-08-19T12:38:09.716Z,20.92
2022-08-19T12:39:10.690Z,20.95
2022-08-19T12:40:09.894Z,20.99
2022-08-19T12:41:09.714Z,21.02
2022-08-19T12:42:09.724Z,21.03
2022-08-19T12:43:09.722Z,20.93
2022-08-19T12:44:09.730Z,20.91
2022-08-19T12:45:09.724Z,20.93
2022-08-19T12:46:10.812Z,20.95
2022-08-19T12:47:09.726Z,20.96
2022-08-19T12:48:33.898Z,20.91
2022-08-19T12:51:09.738Z,20.93
2022-08-19T12:52:09.741Z,20.95
2022-08-19T12:53:09.761Z,20.97
2022-08-19T12:54:09.738Z,21.01
2022-08-19T12:55:09.742Z,21.04
2022-08-19T12:56:12.169Z,21.06
2022-08-19T12:57:09.738Z,21.08
2022-08-19T12:58:09.758Z,21.09
2022-08-19T12:59:09.747Z,21.07
2022-08-19T13:00:09.760Z,21.09
2022-08-19T13:02:09.769Z,21.11
2022-08-19T13:03:09.764Z,21.09
2022-08-19T13:04:09.762Z,21.06
2022-08-19T13:06:09.827Z,21.07
2022-08-19T13:07:09.786Z,21.08
2022-08-19T13:10:09.771Z,21.07
2022-08-19T13:11:09.799Z,21.09
2022-08-19T13:12:09.783Z,21.12
2022-08-19T13:13:09.773Z,21.15
2022-08-19T13:14:09.796Z,21.13
2022-08-19T13:16:09.801Z,21.15
2022-08-19T13:17:09.816Z,21.16
2022-08-19T13:20:09.820Z,21.19
2022-08-19T13:21:09.820Z,21.21
2022-08-19T13:22:13.282Z,21.23
2022-08-19T13:23:09.824Z,21.25
2022-08-19T13:24:09.802Z,21.26
2022-08-19T13:25:09.815Z,21.28
2022-08-19T13:26:09.822Z,21.31
2022-08-19T13:27:09.820Z,21.36
2022-08-19T13:28:09.825Z,21.37
2022-08-19T13:29:09.825Z,21.38
2022-08-19T13:30:09.843Z,21.40
2022-08-19T13:31:09.823Z,21.39
2022-08-19T13:34:09.854Z,21.37
2022-08-19T13:35:11.860Z,21.36
2022-08-19T13:37:09.832Z,21.38
2022-08-19T13:38:11.681Z,21.39
2022-08-19T13:39:09.853Z,21.38
2022-08-19T13:42:09.890Z,21.37
2022-08-19T13:43:13.693Z,21.38
2022-08-19T13:44:09.879Z,21.24
2022-08-19T13:45:09.873Z,21.22
2022-08-19T13:47:09.877Z,21.23
2022-08-19T13:49:09.891Z,21.24
2022-08-19T13:50:09.898Z,21.26
2022-08-19T13:51:09.878Z,21.27
2022-08-19T13:52:09.877Z,21.21
2022-08-19T13:53:09.892Z,21.13
2022-08-19T13:54:09.886Z,21.12
2022-08-19T13:55:09.915Z,21.13
2022-08-19T13:56:09.907Z,21.15
2022-08-19T13:57:09.899Z,21.17
2022-08-19T13:58:09.897Z,21.20
2022-08-19T13:59:09.897Z,21.22
2022-08-19T14:00:09.907Z,21.25
2022-08-19T14:01:10.007Z,21.26
2022-08-19T14:03:09.922Z,21.28
2022-08-19T14:04:09.930Z,21.29
2022-08-19T14:06:09.960Z,21.28
2022-08-19T14:07:09.938Z,21.25
2022-08-19T14:08:09.945Z,21.23
2022-08-19T14:09:09.920Z,21.19
2022-08-19T14:10:09.935Z,21.17
2022-08-19T14:11:09.945Z,21.18
2022-08-19T14:12:09.943Z,21.20
2022-08-19T14:13:09.932Z,21.12
2022-08-19T14:14:13.283Z,21.11
2022-08-19T14:15:09.961Z,21.12
2022-08-19T14:16:09.948Z,21.15
2022-08-19T14:17:09.955Z,21.20
2022-08-19T14:18:09.953Z,21.21
2022-08-19T14:19:09.954Z,21.22
2022-08-19T14:20:11.023Z,21.25
2022-08-19T14:21:09.972Z,21.19
2022-08-19T14:22:09.962Z,21.18
2022-08-19T14:23:09.961Z,21.21
2022-08-19T14:24:09.972Z,21.25
2022-08-19T14:25:09.973Z,21.21
2022-08-19T14:26:09.980Z,21.06
2022-08-19T14:27:09.981Z,21.05
2022-08-19T14:28:09.974Z,21.08
2022-08-19T14:29:09.981Z,21.09
2022-08-19T14:30:10.028Z,21.00
2022-08-19T14:31:09.982Z,20.87
2022-08-19T14:32:11.553Z,20.79
2022-08-19T14:33:09.998Z,20.82
2022-08-19T14:34:10.004Z,20.87
2022-08-19T14:35:10.016Z,20.95
2022-08-19T14:37:09.997Z,21.00
2022-08-19T14:38:10.005Z,21.08
2022-08-19T14:39:10.005Z,21.14
2022-08-19T14:40:10.049Z,21.19
2022-08-19T14:41:10.014Z,21.24
2022-08-19T14:42:11.499Z,21.30
2022-08-19T14:43:10.018Z,21.36
2022-08-19T14:44:10.032Z,21.40
2022-08-19T14:45:10.032Z,21.42
2022-08-19T14:47:10.135Z,21.43
2022-08-19T14:48:19.023Z,21.45
2022-08-19T14:49:10.032Z,21.48
2022-08-19T14:50:10.581Z,21.41
2022-08-19T14:51:10.032Z,21.39
2022-08-19T14:52:10.045Z,21.35
2022-08-19T14:54:10.045Z,21.36
2022-08-19T14:55:10.054Z,21.29
2022-08-19T14:56:10.083Z,21.16
2022-08-19T14:58:10.101Z,21.18
2022-08-19T14:59:10.072Z,21.20
2022-08-19T15:00:10.054Z,21.21
2022-08-19T15:01:10.057Z,21.24
2022-08-19T15:02:33.273Z,21.27
2022-08-19T15:03:10.095Z,21.31
2022-08-19T15:04:10.078Z,21.33
2022-08-19T15:05:10.080Z,21.35
2022-08-19T15:06:10.069Z,21.34
2022-08-19T15:07:10.102Z,21.35
2022-08-19T15:08:10.185Z,21.29
2022-08-19T15:09:10.087Z,21.30
2022-08-19T15:10:10.079Z,21.28
2022-08-19T15:11:10.109Z,21.20
2022-08-19T15:12:10.076Z,20.95
2022-08-19T15:13:10.115Z,20.88
2022-08-19T15:16:18.013Z,20.83
2022-08-19T15:17:10.113Z,20.88
2022-08-19T15:18:10.125Z,20.97
2022-08-19T15:19:10.107Z,21.09
2022-08-19T15:20:10.139Z,21.15
2022-08-19T15:21:10.113Z,21.25
2022-08-19T15:22:10.130Z,21.29
2022-08-19T15:23:10.128Z,21.17
2022-08-19T15:24:10.133Z,21.12
2022-08-19T15:25:10.140Z,20.97
2022-08-19T15:26:16.106Z,20.94
2022-08-19T15:28:10.135Z,20.98
2022-08-19T15:29:10.143Z,21.05
2022-08-19T15:30:10.144Z,21.11
2022-08-19T15:31:10.187Z,21.16
2022-08-19T15:32:10.143Z,21.21
2022-08-19T15:33:10.165Z,21.26
2022-08-19T15:34:10.145Z,21.31
2022-08-19T15:35:10.184Z,21.34
2022-08-19T15:36:10.153Z,21.37
2022-08-19T15:37:10.145Z,21.35
2022-08-19T15:38:10.179Z,21.24
2022-08-19T15:39:10.188Z,21.15
2022-08-19T15:40:10.228Z,21.16
2022-08-19T15:41:10.174Z,21.21
2022-08-19T15:42:10.178Z,21.28
2022-08-19T15:43:10.180Z,21.35
2022-08-19T15:44:10.164Z,21.43
2022-08-19T15:45:10.224Z,21.46